Time;durP1;ratioP1;P1;durP2;ratioP2;P2;SDS_P1;SDS_P2;PMS_P1;PMS_P2;Temp;Humidity;BMP_temperature;BMP_pressure;BME280_temperature;BME280_humidity;BME280_pressure;Samples;Min_cycle;Max_cycle;Signal;HPM_P1;HPM_P2
2023/03/24 00:00:39;;;;;;;32.03;17.00;;;;;;;9.55;71.69;99933.47;3169429;28;20055;-69
2023/03/24 00:02:12;;;;;;;31.58;17.45;;;;;;;9.56;72.07;99929.97;3165929;28;20501;-68
2023/03/24 00:03:47;;;;;;;29.10;16.80;;;;;;;9.53;71.93;99925.75;3169322;28;20059;-68
2023/03/24 00:05:21;;;;;;;30.15;17.90;;;;;;;9.52;72.13;99928.38;3168999;28;20051;-68
2023/03/24 00:06:54;;;;;;;39.08;17.75;;;;;;;9.53;71.83;99935.28;3169127;28;20056;-69
2023/03/24 00:08:29;;;;;;;27.05;16.88;;;;;;;9.52;72.21;99939.66;3169415;28;20055;-69
2023/03/24 00:10:03;;;;;;;33.65;16.83;;;;;;;9.52;72.02;99938.78;3169317;28;20051;-69
2023/03/24 00:11:35;;;;;;;27.42;16.58;;;;;;;9.44;72.24;99926.09;3162931;28;20135;-69
2023/03/24 00:13:08;;;;;;;30.17;17.13;;;;;;;9.49;72.22;99937.16;3169967;28;20047;-69
2023/03/24 00:14:41;;;;;;;27.10;16.35;;;;;;;9.47;72.38;99933.78;3171714;28;20059;-69
2023/03/24 00:16:15;;;;;;;28.23;17.08;;;;;;;9.47;72.22;99944.19;3171636;28;20051;-69
2023/03/24 00:17:49;;;;;;;30.50;17.33;;;;;;;9.46;72.36;99931.22;3159172;28;20048;-70
2023/03/24 00:19:21;;;;;;;;;;;;;;;9.42;72.39;99930.50;3168236;28;20040;-70
2023/03/24 00:20:57;;;;;;;30.15;16.80;;;;;;;8.58;72.26;99801.22;3160685;28;20415;-70
2023/03/24 00:22:29;;;;;;;30.85;17.08;;;;;;;9.41;72.53;99936.63;3161755;28;20500;-68
2023/03/24 00:24:01;;;;;;;29.70;17.55;;;;;;;9.38;72.49;99926.34;3157519;28;20531;-69
2023/03/24 00:25:36;;;;;;;31.90;17.40;;;;;;;9.39;72.65;99933.22;3162035;28;20058;-68
2023/03/24 00:27:12;;;;;;;34.25;17.45;;;;;;;9.39;72.55;99925.41;3159234;28;20083;-68
2023/03/24 00:28:46;;;;;;;29.08;16.65;;;;;;;8.96;72.48;99863.81;3162685;28;20341;-69
2023/03/24 00:30:21;;;;;;;28.13;16.67;;;;;;;9.17;72.64;99896.81;3161558;28;20080;-69
2023/03/24 00:31:54;;;;;;;30.42;16.52;;;;;;;9.37;72.81;99929.81;3161757;28;20528;-69
2023/03/24 00:33:26;;;;;;;30.83;16.45;;;;;;;9.36;72.50;99925.53;3160872;28;20241;-68
2023/03/24 00:34:59;;;;;;;34.88;17.40;;;;;;;9.35;72.64;99923.84;3160616;28;20101;-69
2023/03/24 00:36:31;;;;;;;30.67;16.95;;;;;;;9.13;72.66;99890.03;3161728;28;20051;-69
2023/03/24 00:38:03;;;;;;;28.95;17.35;;;;;;;9.30;72.95;99918.81;3162486;28;20058;-71
2023/03/24 00:39:35;;;;;;;35.58;18.85;;;;;;;9.31;73.13;99923.09;3161316;27;20059;-70
2023/03/24 00:41:10;;;;;;;30.70;17.13;;;;;;;9.30;72.79;99916.22;3157280;28;20612;-70
2023/03/24 00:42:44;;;;;;;31.33;17.60;;;;;;;9.31;72.96;99917.06;3152905;28;20199;-70
2023/03/24 00:44:17;;;;;;;36.50;18.20;;;;;;;9.30;73.08;99918.81;3161015;28;20100;-69
2023/03/24 00:45:48;;;;;;;30.67;18.27;;;;;;;9.28;72.87;99919.78;3161389;28;20055;-71
2023/03/24 00:47:24;;;;;;;31.10;18.20;;;;;;;9.28;72.90;99917.19;3161090;28;20048;-68
2023/03/24 00:49:02;;;;;;;35.63;19.10;;;;;;;9.25;72.83;99923.34;3160736;28;20044;-70
2023/03/24 00:50:34;;;;;;;34.72;18.83;;;;;;;9.13;73.25;99899.56;3161370;27;20071;-69
2023/03/24 00:52:08;;;;;;;32.92;18.65;;;;;;;9.09;73.11;99899.69;3162172;28;20048;-69
2023/03/24 00:53:42;;;;;;;37.88;19.52;;;;;;;9.18;73.48;99916.69;3162123;28;20115;-69
2023/03/24 00:55:15;;;;;;;34.03;17.92;;;;;;;9.18;73.15;99916.69;3161369;28;20058;-68
2023/03/24 00:56:48;;;;;;;31.40;18.52;;;;;;;9.16;73.45;99921.09;3151485;28;20944;-71
2023/03/24 00:58:20;;;;;;;;;;;;;;;9.13;73.29;99916.00;3162756;28;20287;-69
2023/03/24 00:59:54;;;;;;;33.60;16.92;;;;;;;9.11;73.34;99917.84;3162017;28;20248;-69
2023/03/24 01:01:28;;;;;;;37.75;18.48;;;;;;;9.11;73.47;99917.84;3161766;28;20754;-70
2023/03/24 01:03:02;;;;;;;34.70;18.70;;;;;;;9.11;73.21;99913.47;3161777;28;20074;-70
2023/03/24 01:04:34;;;;;;;35.40;18.92;;;;;;;9.12;73.25;99911.72;3160839;28;20062;-70
2023/03/24 01:06:06;;;;;;;34.22;19.65;;;;;;;9.11;73.34;99907.44;3161543;28;20047;-69
2023/03/24 01:07:40;;;;;;;32.13;18.00;;;;;;;9.12;73.42;99911.72;3161342;28;20052;-69
2023/03/24 01:09:12;;;;;;;35.97;19.20;;;;;;;9.12;73.18;99906.53;3161522;28;20075;-68
2023/03/24 01:10:51;;;;;;;34.63;18.95;;;;;;;9.11;73.09;99904.84;3160470;27;20138;-69
2023/03/24 01:12:26;;;;;;;35.20;19.10;;;;;;;9.10;73.48;99903.13;3157063;28;20473;-68
2023/03/24 01:13:57;;;;;;;34.10;19.67;;;;;;;9.08;73.22;99907.53;3161111;28;20062;-68
2023/03/24 01:15:32;;;;;;;36.28;20.70;;;;;;;9.09;73.36;99901.44;3161884;27;20268;-68
2023/03/24 01:17:05;;;;;;;35.97;20.33;;;;;;;9.09;73.41;99901.44;3161319;28;20299;-68
2023/03/24 01:18:39;;;;;;;35.72;20.60;;;;;;;9.07;73.61;99903.25;3163309;28;20052;-69
2023/03/24 01:20:10;;;;;;;35.95;20.63;;;;;;;9.06;73.57;99906.75;3167563;28;20058;-68
2023/03/24 01:21:42;;;;;;;34.90;19.98;;;;;;;9.06;73.35;99901.56;3168469;28;20453;-69
2023/03/24 01:23:15;;;;;;;35.35;20.92;;;;;;;9.04;73.33;99903.38;3170923;28;20921;-69
2023/03/24 01:24:47;;;;;;;38.03;21.55;;;;;;;9.02;73.39;99905.16;3170330;28;20055;-69
2023/03/24 01:26:19;;;;;;;34.70;20.15;;;;;;;8.65;73.49;99845.03;3167463;28;20503;-69
2023/03/24 01:27:52;;;;;;;36.15;21.52;;;;;;;9.00;73.67;99907.84;3170747;28;20124;-69
2023/03/24 01:29:24;;;;;;;38.95;22.15;;;;;;;8.94;73.69;99889.03;3170532;28;20055;-70
2023/03/24 01:30:56;;;;;;;36.88;21.20;;;;;;;8.98;73.74;99894.03;3170391;28;20586;-69
2023/03/24 01:32:28;;;;;;;43.00;21.38;;;;;;;8.98;73.75;99899.25;3170334;28;20435;-69
2023/03/24 01:34:00;;;;;;;37.03;21.85;;;;;;;8.98;73.53;99891.44;3165352;28;20074;-68
2023/03/24 01:35:30;;;;;;;37.17;21.08;;;;;;;8.99;73.76;99884.50;3170511;28;20513;-69
2023/03/24 01:37:02;;;;;;;42.08;22.48;;;;;;;8.99;73.44;99885.38;3170390;28;20188;-66
2023/03/24 01:38:35;;;;;;;38.35;21.52;;;;;;;8.97;73.34;99873.34;3170536;28;20055;-67
2023/03/24 01:40:09;;;;;;;37.78;22.25;;;;;;;8.97;73.53;99874.19;3170564;28;20419;-67
2023/03/24 01:41:40;;;;;;;39.72;22.60;;;;;;;8.97;73.46;99873.34;3161312;28;20191;-68
2023/03/24 01:43:18;;;;;;;48.50;22.55;;;;;;;8.98;73.35;99877.63;3166285;28;20570;-67
2023/03/24 01:44:54;;;;;;;39.03;21.80;;;;;;;8.98;73.45;99872.41;3166882;28;20043;-67
2023/03/24 01:46:28;;;;;;;40.03;21.10;;;;;;;8.97;73.48;99870.75;3170277;28;20145;-67
2023/03/24 01:47:59;;;;;;;50.30;23.25;;;;;;;8.95;73.65;99867.34;3170129;28;20499;-68
2023/03/24 01:49:36;;;;;;;38.70;21.70;;;;;;;8.93;73.46;99876.94;3169940;28;20131;-68
2023/03/24 01:51:13;;;;;;;37.88;21.48;;;;;;;8.77;73.23;99848.94;3170145;28;20059;-69
2023/03/24 01:52:45;;;;;;;37.65;21.83;;;;;;;8.89;73.40;99869.25;3170575;28;20061;-70
2023/03/24 01:54:22;;;;;;;37.08;21.90;;;;;;;8.40;73.32;99788.00;3170006;28;20043;-72
2023/03/24 01:55:54;;;;;;;39.35;21.95;;;;;;;8.85;73.06;99867.69;3167722;28;20044;-70
2023/03/24 01:57:30;;;;;;;39.28;22.05;;;;;;;8.84;73.12;99863.41;3162260;28;20055;-69
2023/03/24 01:59:08;;;;;;;40.92;22.08;;;;;;;8.82;73.37;99867.81;3168625;28;20043;-68
2023/03/24 02:00:40;;;;;;;37.28;21.25;;;;;;;8.80;73.20;99863.56;3170157;28;20043;-69
2023/03/24 02:02:13;;;;;;;42.50;21.25;;;;;;;8.80;73.14;99864.41;3170117;28;20629;-69
2023/03/24 02:03:45;;;;;;;40.60;21.85;;;;;;;8.81;72.86;99870.44;3162055;28;20040;-69
2023/03/24 02:05:17;;;;;;;34.97;21.13;;;;;;;8.79;73.15;99867.06;3170421;28;20550;-69
2023/03/24 02:06:50;;;;;;;36.50;21.35;;;;;;;8.77;72.94;99867.13;3170299;28;20587;-69
2023/03/24 02:08:25;;;;;;;41.65;22.50;;;;;;;8.76;72.75;99877.56;3170169;28;20508;-69
2023/03/24 02:09:57;;;;;;;39.50;21.30;;;;;;;8.66;72.76;99861.47;3170143;28;20143;-69
2023/03/24 02:11:33;;;;;;;36.20;21.02;;;;;;;8.72;72.98;99874.22;3164646;28;20105;-69
2023/03/24 02:13:05;;;;;;;41.17;23.20;;;;;;;8.63;73.16;99856.38;3170118;28;20083;-70
2023/03/24 02:14:38;;;;;;;37.97;21.30;;;;;;;8.66;73.18;99861.47;3170066;28;20113;-69
2023/03/24 02:16:24;;;;;;;35.92;20.60;;;;;;;8.62;72.98;99858.13;3170157;28;20047;-70
2023/03/24 02:18:06;;;;;;;37.03;20.92;;;;;;;8.64;73.11;99874.50;3158692;28;20134;-69
2023/03/24 02:20:22;;;;;;;35.72;20.58;;;;;;;8.64;73.10;99873.66;3168363;28;20134;-70
2023/03/24 02:22:03;;;;;;;;;;;;;;;8.55;73.17;99874.84;3161095;28;20047;-69
2023/03/24 02:24:03;;;;;;;31.33;19.02;;;;;;;8.49;73.05;99874.19;3159901;28;20114;-69
2023/03/24 02:25:59;;;;;;;33.63;18.80;;;;;;;8.48;73.36;99877.69;3159557;28;20471;-69
2023/03/24 02:27:55;;;;;;;36.88;19.63;;;;;;;8.45;73.52;99883.00;3148580;28;20115;-70
2023/03/24 02:30:04;;;;;;;37.90;20.33;;;;;;;8.39;73.61;99879.72;3150390;28;20052;-70
2023/03/24 02:32:05;;;;;;;38.78;19.65;;;;;;;8.34;73.52;99884.22;3159902;28;20089;-69
2023/03/24 02:34:28;;;;;;;35.92;18.80;;;;;;;8.28;73.68;99880.94;3156945;28;20109;-70
2023/03/24 02:36:40;;;;;;;35.58;18.75;;;;;;;8.25;74.06;99881.06;3149776;28;20047;-68
2023/03/24 02:38:44;;;;;;;33.25;18.75;;;;;;;8.20;74.06;99882.06;3159418;28;20707;-68
2023/03/24 02:40:32;;;;;;;36.00;18.67;;;;;;;8.19;73.87;99889.88;3129908;28;20083;-68
2023/03/24 02:42:11;;;;;;;32.65;18.95;;;;;;;8.20;74.22;99891.59;3148038;28;20429;-69
2023/03/24 02:43:50;;;;;;;37.58;18.63;;;;;;;8.16;74.21;99892.59;3147301;28;20070;-69
2023/03/24 02:45:29;;;;;;;33.53;19.00;;;;;;;8.18;73.99;99898.59;3152055;28;20153;-69
2023/03/24 02:47:06;;;;;;;33.35;18.77;;;;;;;8.15;74.12;99896.94;3147859;28;20762;-69
2023/03/24 02:48:45;;;;;;;34.05;18.85;;;;;;;8.15;74.23;99906.47;3148121;28;20074;-70
2023/03/24 02:50:26;;;;;;;40.05;18.25;;;;;;;8.15;74.33;99909.06;3147281;28;20445;-70
2023/03/24 02:52:04;;;;;;;32.08;17.52;;;;;;;8.11;74.53;99917.84;3138727;28;20364;-69
2023/03/24 02:53:48;;;;;;;28.58;16.63;;;;;;;8.07;74.43;99911.06;3133810;28;20141;-70
2023/03/24 02:55:28;;;;;;;30.40;17.88;;;;;;;8.06;74.49;99911.97;3122275;28;20060;-69
2023/03/24 02:57:06;;;;;;;28.75;17.30;;;;;;;8.05;74.68;99916.31;3132407;28;20134;-70
2023/03/24 02:58:42;;;;;;;30.20;16.73;;;;;;;8.05;74.74;99918.91;3124775;28;20099;-69
2023/03/24 03:00:20;;;;;;;31.65;17.77;;;;;;;8.05;74.41;99912.88;3129664;28;20110;-69
2023/03/24 03:01:57;;;;;;;30.77;16.85;;;;;;;8.02;74.72;99906.03;3134251;28;20056;-69
2023/03/24 03:03:34;;;;;;;32.88;18.85;;;;;;;8.01;74.45;99911.25;3124195;28;20136;-69
2023/03/24 03:05:12;;;;;;;29.25;17.95;;;;;;;8.01;74.43;99924.22;3133730;28;20084;-68
2023/03/24 03:06:50;;;;;;;30.45;17.23;;;;;;;7.97;74.31;99919.16;3125142;28;20049;-68
2023/03/24 03:08:24;;;;;;;32.05;16.80;;;;;;;7.88;74.38;99914.25;3132656;28;20157;-67
2023/03/24 03:10:00;;;;;;;32.17;17.02;;;;;;;7.93;74.50;99930.53;3121736;28;20053;-67
2023/03/24 03:11:34;;;;;;;35.95;17.88;;;;;;;7.91;74.52;99928.88;3129353;28;20165;-68
2023/03/24 03:13:11;;;;;;;31.10;17.13;;;;;;;7.41;74.81;99851.81;3134109;28;20056;-67
2023/03/24 03:14:48;;;;;;;30.67;17.50;;;;;;;7.86;74.70;99931.59;3126589;28;20132;-68
2023/03/24 03:16:24;;;;;;;30.10;17.23;;;;;;;7.84;74.68;99943.78;3124179;28;20510;-68
2023/03/24 03:18:02;;;;;;;27.92;16.45;;;;;;;7.55;74.56;99910.16;3134278;28;20067;-68
2023/03/24 03:19:37;;;;;;;30.42;16.58;;;;;;;7.80;74.63;99949.09;3123147;28;20106;-69
2023/03/24 03:21:15;;;;;;;27.20;16.80;;;;;;;7.79;74.56;99950.84;3123385;28;20059;-68
2023/03/24 03:22:50;;;;;;;28.00;16.40;;;;;;;7.75;74.31;99951.84;3128320;28;20053;-69
2023/03/24 03:24:25;;;;;;;29.25;16.58;;;;;;;7.74;74.25;99961.34;3121903;28;20059;-70
2023/03/24 03:26:04;;;;;;;30.63;17.15;;;;;;;7.72;74.15;99959.72;3124686;28;20805;-71
2023/03/24 03:27:42;;;;;;;30.38;15.80;;;;;;;7.66;74.23;99944.34;3134223;28;20521;-70
2023/03/24 03:29:20;;;;;;;29.55;16.33;;;;;;;7.29;73.97;99896.25;3126464;28;20054;-70
2023/03/24 03:30:57;;;;;;;28.35;17.08;;;;;;;7.51;74.12;99927.50;3134509;28;20137;-71
2023/03/24 03:32:33;;;;;;;34.25;16.95;;;;;;;7.57;74.23;99934.25;3123840;28;20068;-70
2023/03/24 03:34:14;;;;;;;31.92;16.58;;;;;;;6.97;74.24;99841.06;3131957;28;20505;-71
2023/03/24 03:35:52;;;;;;;27.27;16.17;;;;;;;7.49;74.49;99927.56;3124124;28;20529;-70
2023/03/24 03:37:28;;;;;;;28.92;15.68;;;;;;;7.46;74.53;99926.84;3133243;28;20070;-69
2023/03/24 03:39:07;;;;;;;28.55;16.42;;;;;;;7.41;74.64;99911.41;3125914;28;20049;-69
2023/03/24 03:40:43;;;;;;;31.48;16.30;;;;;;;7.37;74.82;99896.88;3122789;28;20919;-69
2023/03/24 03:42:15;;;;;;;32.97;16.55;;;;;;;7.35;74.58;99888.28;3122746;28;20159;-68
2023/03/24 03:43:49;;;;;;;29.17;15.85;;;;;;;7.32;75.01;99890.97;3126684;28;20067;-69
2023/03/24 03:45:22;;;;;;;30.50;16.50;;;;;;;7.28;75.05;99885.03;3122365;28;20053;-68
2023/03/24 03:46:55;;;;;;;30.90;16.00;;;;;;;7.24;75.22;99875.63;3122154;28;20140;-68
2023/03/24 03:48:28;;;;;;;28.02;16.17;;;;;;;7.22;75.37;99874.03;3123669;28;20172;-69
2023/03/24 03:49:59;;;;;;;28.95;16.13;;;;;;;7.22;75.55;99874.03;3134974;28;20049;-68
2023/03/24 03:51:33;;;;;;;24.50;14.73;;;;;;;7.21;75.71;99872.31;3144685;28;20052;-69
2023/03/24 03:53:05;;;;;;;29.00;15.40;;;;;;;7.21;75.74;99867.97;3149102;28;20091;-70
2023/03/24 03:54:38;;;;;;;31.50;16.30;;;;;;;7.23;75.86;99868.78;3158474;28;20514;-69
2023/03/24 03:56:09;;;;;;;;;;;;;;;6.87;75.75;99803.41;3158165;28;20066;-68
2023/03/24 03:57:42;;;;;;;25.63;14.38;;;;;;;7.07;75.66;99842.50;3157535;28;20387;-65
2023/03/24 03:59:26;;;;;;;28.35;15.02;;;;;;;7.23;75.80;99867.94;3160119;28;20508;-68
2023/03/24 04:00:58;;;;;;;;;;;;;;;7.22;75.66;99867.09;3158666;28;20108;-68
2023/03/24 04:02:47;;;;;;;25.58;14.55;;;;;;;7.21;75.78;99865.38;3162343;28;19923;-69
2023/03/24 04:04:51;;;;;;;29.83;15.15;;;;;;;7.23;75.66;99862.75;3161587;28;20082;-68
2023/03/24 04:06:30;;;;;;;26.58;14.98;;;;;;;7.23;75.58;99865.34;3162314;28;20102;-68
2023/03/24 04:08:20;;;;;;;27.48;15.45;;;;;;;7.23;75.25;99862.75;3162220;28;20476;-69
2023/03/24 04:10:04;;;;;;;27.90;14.95;;;;;;;6.86;75.34;99803.44;3161228;27;20504;-67
2023/03/24 04:11:55;;;;;;;27.75;14.52;;;;;;;7.20;75.21;99862.84;3156153;28;20051;-70
2023/03/24 04:13:36;;;;;;;28.95;15.75;;;;;;;7.18;75.38;99864.63;3162268;28;20047;-69
2023/03/24 04:15:34;;;;;;;29.15;15.20;;;;;;;7.19;75.18;99869.78;3162836;28;20047;-68
2023/03/24 04:17:16;;;;;;;31.20;15.20;;;;;;;7.18;75.18;99872.41;3162250;28;20111;-68
2023/03/24 04:19:03;;;;;;;29.55;15.35;;;;;;;7.17;75.12;99879.31;3161808;28;20550;-68
2023/03/24 04:20:45;;;;;;;30.27;15.25;;;;;;;7.17;75.32;99879.31;3161634;28;20561;-68
2023/03/24 04:22:27;;;;;;;29.60;16.20;;;;;;;7.17;75.34;99881.06;3161753;28;20265;-70
2023/03/24 04:24:12;;;;;;;31.17;16.88;;;;;;;7.18;75.38;99885.34;3162936;28;20158;-68
2023/03/24 04:25:55;;;;;;;29.90;15.18;;;;;;;7.19;75.26;99885.31;3161800;28;20195;-68
2023/03/24 04:27:37;;;;;;;28.90;15.73;;;;;;;7.18;75.32;99881.00;3162431;28;20057;-71
2023/03/24 04:29:16;;;;;;;30.35;15.63;;;;;;;7.07;75.43;99864.97;3153061;28;20048;-69
2023/03/24 04:30:55;;;;;;;29.25;15.48;;;;;;;7.09;75.40;99865.75;3150016;28;20070;-69
2023/03/24 04:32:32;;;;;;;23.67;13.95;;;;;;;7.21;75.42;99887.84;3149855;28;20052;-69
2023/03/24 04:34:12;;;;;;;28.15;14.88;;;;;;;7.19;75.53;99887.91;3156615;28;20048;-68
2023/03/24 04:35:48;;;;;;;28.73;14.75;;;;;;;7.22;75.58;99907.69;3149115;28;20063;-69
2023/03/24 04:37:24;;;;;;;24.52;14.63;;;;;;;7.21;75.56;99895.63;3161271;28;20047;-69
2023/03/24 04:39:00;;;;;;;31.60;16.15;;;;;;;7.19;75.56;99902.59;3161218;28;20051;-68
2023/03/24 04:40:35;;;;;;;29.52;14.80;;;;;;;7.16;75.50;99903.53;3161346;28;20051;-69
2023/03/24 04:42:11;;;;;;;31.95;16.42;;;;;;;7.15;75.58;99900.97;3148344;28;20091;-69
2023/03/24 04:43:46;;;;;;;31.33;16.02;;;;;;;7.12;75.55;99899.31;3149248;28;20060;-69
2023/03/24 04:45:19;;;;;;;27.48;15.32;;;;;;;7.01;75.67;99886.72;3161222;28;20052;-69
2023/03/24 04:46:55;;;;;;;;;;;;;;;7.13;75.62;99907.94;3161396;28;20153;-68
2023/03/24 04:48:27;;;;;;;26.65;14.57;;;;;;;7.12;75.80;99911.44;3161405;28;20360;-69
2023/03/24 04:50:03;;;;;;;29.50;16.00;;;;;;;7.15;75.85;99911.34;3162036;28;20051;-69
2023/03/24 04:51:36;;;;;;;28.45;15.38;;;;;;;7.17;75.48;99906.97;3162326;28;20063;-69
2023/03/24 04:53:09;;;;;;;27.92;14.63;;;;;;;7.15;75.72;99908.75;3161502;28;20140;-69
2023/03/24 04:54:41;;;;;;;25.67;14.93;;;;;;;7.15;75.48;99904.41;3160555;28;20291;-67
2023/03/24 04:56:34;;;;;;;27.15;14.98;;;;;;;7.12;75.33;99911.44;3157186;28;20130;-68
2023/03/24 04:58:06;;;;;;;27.80;13.98;;;;;;;7.05;75.38;99911.59;3160744;28;20056;-69
2023/03/24 04:59:39;;;;;;;27.00;14.13;;;;;;;7.06;75.44;99909.88;3167777;28;20078;-69
2023/03/24 05:01:11;;;;;;;37.58;14.60;;;;;;;7.06;75.24;99918.47;3170807;28;20043;-69
2023/03/24 05:02:44;;;;;;;26.02;15.02;;;;;;;7.06;75.03;99917.63;3171068;28;20138;-68
2023/03/24 05:04:16;;;;;;;32.00;13.93;;;;;;;7.05;74.98;99915.94;3170822;28;20052;-68
2023/03/24 05:05:50;;;;;;;30.08;15.32;;;;;;;7.05;74.89;99915.94;3171303;28;20044;-68
2023/03/24 05:07:22;;;;;;;;;;;;;;;7.04;74.95;99928.03;3171480;28;20604;-68
2023/03/24 05:08:56;;;;;;;24.90;13.00;;;;;;;6.94;74.93;99908.47;3170203;28;20014;-69
2023/03/24 05:10:27;;;;;;;29.60;14.20;;;;;;;7.01;74.95;99915.19;3170749;28;20051;-69
2023/03/24 05:11:59;;;;;;;25.27;14.05;;;;;;;7.00;74.97;99917.81;3161999;28;20062;-73
2023/03/24 05:13:31;;;;;;;24.55;14.05;;;;;;;7.03;74.97;99926.34;3171159;28;20047;-67
2023/03/24 05:15:04;;;;;;;27.27;14.18;;;;;;;7.05;74.88;99927.16;3170457;28;20059;-68
2023/03/24 05:16:36;;;;;;;33.85;15.18;;;;;;;7.06;74.92;99931.41;3170517;28;20055;-68
2023/03/24 05:18:09;;;;;;;29.02;15.52;;;;;;;7.11;75.00;99923.53;3171047;28;20117;-66
2023/03/24 05:19:41;;;;;;;31.17;14.90;;;;;;;7.01;74.85;99898.78;3170420;28;20047;-66
2023/03/24 05:21:13;;;;;;;38.00;17.63;;;;;;;7.18;75.15;99922.44;3170583;28;20058;-64
2023/03/24 05:22:45;;;;;;;36.15;18.45;;;;;;;7.17;75.39;99915.59;3171213;28;20039;-66
2023/03/24 05:24:17;;;;;;;76.30;39.63;;;;;;;7.27;75.03;99922.19;3168038;28;20044;-65
2023/03/24 05:25:50;;;;;;;78.07;39.42;;;;;;;7.34;74.89;99927.19;3169490;28;20056;-62
2023/03/24 05:27:21;;;;;;;37.67;19.30;;;;;;;7.38;74.91;99931.38;3166746;28;20404;-64
2023/03/24 05:28:54;;;;;;;36.83;17.65;;;;;;;7.41;74.99;99926.97;3170921;28;20111;-63
2023/03/24 05:30:25;;;;;;;31.95;16.23;;;;;;;7.44;75.02;99929.44;3170386;28;20075;-64
2023/03/24 05:31:56;;;;;;;34.25;17.38;;;;;;;7.46;74.95;99932.84;3170968;28;20413;-64
2023/03/24 05:33:30;;;;;;;27.50;15.52;;;;;;;7.46;75.00;99932.00;3167954;28;20040;-62
2023/03/24 05:35:02;;;;;;;32.65;15.30;;;;;;;7.52;75.14;99937.00;3168198;28;20048;-62
2023/03/24 05:36:33;;;;;;;34.42;15.57;;;;;;;7.55;75.07;99930.88;3170522;28;20055;-62
2023/03/24 05:38:05;;;;;;;27.75;15.65;;;;;;;7.58;74.96;99939.41;3169330;28;20054;-65
2023/03/24 05:39:37;;;;;;;27.95;15.05;;;;;;;7.62;75.27;99937.56;3170907;28;20508;-62
2023/03/24 05:41:09;;;;;;;31.80;16.23;;;;;;;7.63;75.32;99941.84;3166782;28;20044;-63
2023/03/24 05:42:41;;;;;;;25.20;14.35;;;;;;;7.65;75.26;99943.50;3170751;28;20043;-65
2023/03/24 05:44:13;;;;;;;31.55;16.45;;;;;;;7.36;74.99;99887.38;3170526;28;20039;-61
2023/03/24 05:45:44;;;;;;;33.67;15.35;;;;;;;7.71;75.41;99947.66;3170144;28;20052;-64
2023/03/24 05:47:18;;;;;;;28.75;15.75;;;;;;;7.75;75.39;99946.66;3170307;28;20056;-64
2023/03/24 05:48:52;;;;;;;30.13;15.70;;;;;;;7.84;75.25;99948.97;3170134;28;20109;-62
2023/03/24 05:50:24;;;;;;;25.67;14.73;;;;;;;7.87;75.06;99945.44;3170433;28;20047;-62
2023/03/24 05:51:56;;;;;;;27.67;15.48;;;;;;;7.93;75.23;99953.88;3170242;28;20508;-62
2023/03/24 05:53:28;;;;;;;31.20;14.63;;;;;;;8.01;75.28;99952.75;3168527;28;20047;-61
2023/03/24 05:55:00;;;;;;;29.55;15.13;;;;;;;8.17;75.24;99949.63;3169548;28;20052;-62
2023/03/24 05:56:32;;;;;;;26.55;14.65;;;;;;;8.53;74.23;99938.94;3162296;28;20044;-61
2023/03/24 05:58:04;;;;;;;26.27;14.68;;;;;;;8.97;73.12;99951.25;3164849;28;20051;-62
2023/03/24 05:59:34;;;;;;;28.33;14.73;;;;;;;9.05;72.44;99946.59;3170096;28;20108;-62
2023/03/24 06:01:09;;;;;;;26.25;14.05;;;;;;;9.07;72.26;99952.59;3168889;28;20106;-62
2023/03/24 06:02:41;;;;;;;22.65;14.95;;;;;;;9.10;72.67;99955.94;3165703;28;20519;-63
2023/03/24 06:04:14;;;;;;;32.38;14.48;;;;;;;9.11;nan;99957.66;3170376;28;20048;-62
2023/03/24 06:05:46;;;;;;;29.90;14.68;;;;;;;8.73;72.50;99898.47;3170430;28;20059;-61
2023/03/24 06:07:18;;;;;;;21.67;13.20;;;;;;;9.20;72.37;99961.66;3169728;28;20497;-62
2023/03/24 06:08:53;;;;;;;32.20;15.40;;;;;;;9.28;72.35;99961.34;3170634;28;20220;-62
2023/03/24 06:10:26;;;;;;;28.20;14.25;;;;;;;9.40;72.51;99963.50;3169155;28;20603;-61
2023/03/24 06:11:58;;;;;;;25.80;14.23;;;;;;;9.50;72.56;99964.00;3170033;28;20436;-62
2023/03/24 06:13:31;;;;;;;26.88;15.02;;;;;;;9.55;72.25;99956.88;3170436;28;20128;-63
2023/03/24 06:15:04;;;;;;;27.88;14.57;;;;;;;9.70;72.10;99966.69;3170234;28;20135;-63
2023/03/24 06:16:38;;;;;;;25.98;14.27;;;;;;;9.77;71.64;99951.69;3164560;28;20051;-61
2023/03/24 06:18:12;;;;;;;27.13;15.40;;;;;;;9.91;71.50;99954.59;3158164;28;20523;-63
2023/03/24 06:19:48;;;;;;;27.75;14.30;;;;;;;10.03;71.17;99958.47;3157640;28;20086;-60
2023/03/24 06:21:20;;;;;;;24.38;13.88;;;;;;;10.13;70.90;99954.56;3169518;28;20116;-63
2023/03/24 06:22:57;;;;;;;28.85;15.13;;;;;;;10.24;70.34;99960.19;3169845;28;20047;-63
2023/03/24 06:24:30;;;;;;;28.63;15.27;;;;;;;10.36;70.48;99963.22;3169600;28;20051;-64
2023/03/24 06:26:02;;;;;;;97.72;36.90;;;;;;;10.20;69.67;99932.59;3168190;28;20076;-65
2023/03/24 06:27:35;;;;;;;33.05;17.90;;;;;;;10.56;69.80;99960.63;3170117;28;20108;-65
2023/03/24 06:29:07;;;;;;;39.10;22.73;;;;;;;10.68;69.39;99959.25;3170516;28;20044;-65
2023/03/24 06:30:37;;;;;;;28.63;13.48;;;;;;;10.81;68.71;99960.41;3157315;28;20442;-64
2023/03/24 06:32:10;;;;;;;43.67;21.38;;;;;;;10.61;68.46;99908.34;3169844;28;20107;-65
2023/03/24 06:33:42;;;;;;;35.53;19.67;;;;;;;11.11;68.27;99965.19;3167370;28;20101;-64
2023/03/24 06:35:16;;;;;;;30.13;14.55;;;;;;;11.28;67.78;99957.44;3170166;28;20051;-64
2023/03/24 06:36:48;;;;;;;29.65;14.07;;;;;;;11.46;67.33;99954.91;3169495;28;20513;-65
2023/03/24 06:38:21;;;;;;;27.48;13.15;;;;;;;11.65;66.52;99960.94;3169274;28;20051;-63
2023/03/24 06:39:52;;;;;;;24.42;13.88;;;;;;;11.90;66.66;99960.69;3165274;28;20048;-64
2023/03/24 06:41:24;;;;;;;23.10;13.00;;;;;;;12.27;66.18;99964.09;3167138;28;20051;-62
2023/03/24 06:42:56;;;;;;;23.58;12.88;;;;;;;12.76;65.11;99961.63;3170269;28;20051;-61
2023/03/24 06:44:28;;;;;;;19.38;11.73;;;;;;;13.31;63.81;99955.28;3169753;28;20048;-62
2023/03/24 06:46:00;;;;;;;24.88;12.65;;;;;;;14.10;61.81;99956.06;3169988;28;20059;-62
2023/03/24 06:47:32;;;;;;;22.58;12.70;;;;;;;15.14;58.49;99963.97;3169920;28;20149;-63
2023/03/24 06:49:04;;;;;;;24.42;12.40;;;;;;;15.93;55.30;99956.34;3169741;28;20817;-61
2023/03/24 06:50:37;;;;;;;17.80;10.68;;;;;;;16.87;53.09;99959.81;3169680;28;20051;-62
2023/03/24 06:52:09;;;;;;;16.73;10.70;;;;;;;17.82;50.71;99961.84;3169662;28;20112;-62
2023/03/24 06:53:42;;;;;;;16.85;10.02;;;;;;;18.67;48.64;99964.34;3169822;28;20047;-63
2023/03/24 06:55:14;;;;;;;;;;;;;;;19.10;46.83;99966.31;3170157;28;20051;-61
2023/03/24 06:56:46;;;;;;;18.05;8.77;;;;;;;19.37;45.67;99963.31;3160041;28;20613;-61
2023/03/24 06:58:18;;;;;;;12.70;8.18;;;;;;;19.72;44.56;99960.50;3157181;28;20056;-60
2023/03/24 06:59:49;;;;;;;20.70;8.65;;;;;;;20.09;43.43;99960.19;3166300;28;20052;-62
2023/03/24 07:01:23;;;;;;;14.98;8.90;;;;;;;20.35;42.56;99965.97;3164490;28;20048;-60
2023/03/24 07:02:55;;;;;;;;;;;;;;;20.45;42.43;99969.50;3164447;28;20580;-61
2023/03/24 07:04:27;;;;;;;13.90;8.43;;;;;;;20.68;41.92;99956.19;3164365;28;20404;-61
2023/03/24 07:06:01;;;;;;;16.63;8.50;;;;;;;20.89;41.11;99964.09;3164441;28;20097;-61
2023/03/24 07:07:34;;;;;;;20.13;10.20;;;;;;;21.06;41.11;99959.97;3168612;28;20104;-61
2023/03/24 07:09:06;;;;;;;19.90;9.20;;;;;;;21.09;40.50;99968.50;3169321;28;20051;-62
2023/03/24 07:10:41;;;;;;;15.98;9.23;;;;;;;20.96;40.41;99967.88;3168270;28;20050;-60
2023/03/24 07:12:13;;;;;;;17.08;9.65;;;;;;;20.84;40.01;99966.28;3161782;28;20529;-60
2023/03/24 07:13:45;;;;;;;14.68;8.45;;;;;;;20.80;40.03;99967.53;3169761;28;20067;-61
2023/03/24 07:15:17;;;;;;;12.75;8.60;;;;;;;20.78;39.78;99962.34;3168939;28;20080;-62
2023/03/24 07:16:48;;;;;;;15.30;8.82;;;;;;;20.69;39.55;99963.13;3169413;28;20047;-62
2023/03/24 07:18:20;;;;;;;18.50;9.75;;;;;;;20.58;39.50;99965.84;3169606;28;20051;-63
2023/03/24 07:19:52;;;;;;;21.35;9.73;;;;;;;20.55;39.63;99966.09;3167401;28;20052;-63
2023/03/24 07:21:26;;;;;;;21.75;9.32;;;;;;;20.64;40.06;99960.03;3163844;28;20052;-61
2023/03/24 07:22:58;;;;;;;19.17;10.02;;;;;;;20.58;39.65;99952.63;3164215;28;20492;-61
2023/03/24 07:24:30;;;;;;;22.88;10.57;;;;;;;20.63;39.54;99961.84;3163742;28;20051;-60
2023/03/24 07:26:02;;;;;;;17.17;10.27;;;;;;;20.60;39.33;99956.81;3160557;28;20048;-61